createdAt,value
2023-06-16T00:00:36.727Z,26.07
2023-06-16T00:01:36.839Z,26.06
2023-06-16T00:02:36.757Z,26.07
2023-06-16T00:03:36.758Z,26.07
2023-06-16T00:04:36.716Z,26.06
2023-06-16T00:05:36.723Z,26.07
2023-06-16T00:06:36.733Z,26.06
2023-06-16T00:07:36.730Z,26.06
2023-06-16T00:08:36.750Z,26.06
2023-06-16T00:09:36.759Z,26.06
2023-06-16T00:10:36.797Z,26.06
2023-06-16T00:11:36.759Z,26.06
2023-06-16T00:12:36.768Z,26.05
2023-06-16T00:13:36.763Z,26.05
2023-06-16T00:14:36.777Z,26.05
2023-06-16T00:15:36.789Z,26.05
2023-06-16T00:16:36.772Z,26.05
2023-06-16T00:17:36.834Z,26.05
2023-06-16T00:18:36.796Z,26.05
2023-06-16T00:19:36.820Z,26.04
2023-06-16T00:20:36.821Z,26.05
2023-06-16T00:21:36.835Z,26.04
2023-06-16T00:22:36.817Z,26.04
2023-06-16T00:23:36.817Z,26.04
2023-06-16T00:24:36.826Z,26.04
2023-06-16T00:25:36.827Z,26.04
2023-06-16T00:26:36.823Z,26.03
2023-06-16T00:27:36.838Z,26.03
2023-06-16T00:28:36.873Z,26.04
2023-06-16T00:29:36.842Z,26.03
2023-06-16T00:30:36.857Z,26.03
2023-06-16T00:31:36.856Z,26.03
2023-06-16T00:32:36.879Z,26.03
2023-06-16T00:33:36.883Z,26.03
2023-06-16T00:34:36.867Z,26.03
2023-06-16T00:35:36.883Z,26.03
2023-06-16T00:36:36.906Z,26.02
2023-06-16T00:37:36.899Z,26.03
2023-06-16T00:38:36.913Z,26.03
2023-06-16T00:39:36.946Z,26.02
2023-06-16T00:40:36.993Z,26.02
2023-06-16T00:41:36.930Z,26.02
2023-06-16T00:42:36.933Z,26.02
2023-06-16T00:43:36.964Z,26.02
2023-06-16T00:44:36.952Z,26.02
2023-06-16T00:45:36.969Z,26.02
2023-06-16T00:46:37.050Z,26.02
2023-06-16T00:47:37.057Z,26.02
2023-06-16T00:48:37.006Z,26.02
2023-06-16T00:49:37.033Z,26.01
2023-06-16T00:50:37.050Z,26.02
2023-06-16T00:51:37.030Z,26.01
2023-06-16T00:52:37.071Z,26.01
2023-06-16T00:53:37.061Z,26.01
2023-06-16T00:54:37.073Z,26.01
2023-06-16T00:55:37.140Z,26.01
2023-06-16T00:56:37.101Z,26.01
2023-06-16T00:57:37.107Z,26.01
2023-06-16T00:58:37.148Z,26.01
2023-06-16T00:59:37.146Z,26.01
2023-06-16T01:00:37.148Z,26.01
2023-06-16T01:01:37.152Z,26.01
2023-06-16T01:02:37.228Z,26.00
2023-06-16T01:03:37.198Z,26.00
2023-06-16T01:04:37.196Z,26.00
2023-06-16T01:05:37.222Z,26.00
2023-06-16T01:06:37.217Z,26.00
2023-06-16T01:07:37.245Z,26.00
2023-06-16T01:08:37.231Z,26.00
2023-06-16T01:09:37.244Z,26.00
2023-06-16T01:10:37.264Z,26.00
2023-06-16T01:11:37.281Z,26.00
2023-06-16T01:12:37.285Z,26.00
2023-06-16T01:13:37.290Z,26.00
2023-06-16T01:14:37.302Z,25.99
2023-06-16T01:15:37.359Z,25.99
2023-06-16T01:16:37.356Z,25.99
2023-06-16T01:17:37.363Z,25.99
2023-06-16T01:18:37.368Z,25.99
2023-06-16T01:19:37.372Z,25.99
2023-06-16T01:20:37.399Z,25.99
2023-06-16T01:21:37.419Z,25.99
2023-06-16T01:22:37.429Z,25.99
2023-06-16T01:23:37.441Z,25.99
2023-06-16T01:24:37.498Z,25.98
2023-06-16T01:25:37.480Z,25.99
2023-06-16T01:26:37.506Z,25.98
2023-06-16T01:27:37.514Z,25.98
2023-06-16T01:28:37.544Z,25.99
2023-06-16T01:29:37.639Z,25.98
2023-06-16T01:30:37.561Z,25.99
2023-06-16T01:31:37.602Z,25.99
2023-06-16T01:32:37.598Z,25.98
2023-06-16T01:33:37.603Z,25.98
2023-06-16T01:34:37.635Z,25.98
2023-06-16T01:35:37.657Z,25.98
2023-06-16T01:36:37.683Z,25.98
2023-06-16T01:37:37.691Z,25.97
2023-06-16T01:38:37.712Z,25.97
2023-06-16T01:39:37.747Z,25.98
2023-06-16T01:40:37.791Z,25.97
2023-06-16T01:41:37.794Z,25.97
2023-06-16T01:42:37.770Z,25.97
2023-06-16T01:43:37.791Z,25.97
2023-06-16T01:44:37.806Z,25.97
2023-06-16T01:45:37.845Z,25.96
2023-06-16T01:46:38.048Z,25.97
2023-06-16T01:47:38.008Z,25.96
2023-06-16T01:48:37.883Z,25.96
2023-06-16T01:49:37.900Z,25.95
2023-06-16T01:50:37.920Z,25.96
2023-06-16T01:51:37.933Z,25.96
2023-06-16T01:52:37.953Z,25.96
2023-06-16T01:53:37.975Z,25.96
2023-06-16T01:54:37.994Z,25.96
2023-06-16T01:55:38.012Z,25.95
2023-06-16T01:56:38.021Z,25.96
2023-06-16T01:57:38.047Z,25.95
2023-06-16T01:58:38.057Z,25.95
2023-06-16T01:59:38.080Z,25.95
2023-06-16T02:00:38.092Z,25.95
2023-06-16T02:01:38.102Z,25.95
2023-06-16T02:02:38.276Z,25.95
2023-06-16T02:03:38.275Z,25.95
2023-06-16T02:04:38.180Z,25.95
2023-06-16T02:05:38.181Z,25.94
2023-06-16T02:06:38.209Z,25.94
2023-06-16T02:07:38.212Z,25.94
2023-06-16T02:08:38.251Z,25.94
2023-06-16T02:09:38.258Z,25.95
2023-06-16T02:10:38.264Z,25.94
2023-06-16T02:11:38.293Z,25.94
2023-06-16T02:12:38.326Z,25.93
2023-06-16T02:13:38.330Z,25.94
2023-06-16T02:14:38.362Z,25.94
2023-06-16T02:15:38.365Z,25.93
2023-06-16T02:16:38.566Z,25.94
2023-06-16T02:17:38.463Z,25.94
2023-06-16T02:18:38.428Z,25.93
2023-06-16T02:19:38.448Z,25.93
2023-06-16T02:20:38.466Z,25.94
2023-06-16T02:21:38.487Z,25.93
2023-06-16T02:22:38.506Z,25.93
2023-06-16T02:23:38.538Z,25.93
2023-06-16T02:24:38.572Z,25.93
2023-06-16T02:25:38.580Z,25.93
2023-06-16T02:26:38.607Z,25.92
2023-06-16T02:27:38.612Z,25.93
2023-06-16T02:28:38.626Z,25.92
2023-06-16T02:29:38.645Z,25.93
2023-06-16T02:30:38.695Z,25.92
2023-06-16T02:31:38.690Z,25.92
2023-06-16T02:32:46.198Z,25.92
2023-06-16T02:33:39.711Z,25.92
2023-06-16T02:34:38.692Z,25.92
2023-06-16T02:35:38.695Z,25.93
2023-06-16T02:36:38.666Z,25.93
2023-06-16T02:37:38.668Z,25.92
2023-06-16T02:38:38.660Z,25.92
2023-06-16T02:39:38.660Z,25.92
2023-06-16T02:40:38.641Z,25.93
2023-06-16T02:41:38.650Z,25.93
2023-06-16T02:42:38.628Z,25.93
2023-06-16T02:43:38.614Z,25.93
2023-06-16T02:44:38.610Z,25.94
2023-06-16T02:45:38.614Z,25.92
2023-06-16T02:46:38.681Z,25.92
2023-06-16T02:47:38.645Z,25.93
2023-06-16T02:48:38.586Z,25.93
2023-06-16T02:49:38.595Z,25.93
2023-06-16T02:50:38.592Z,25.93
2023-06-16T02:51:38.570Z,25.93
2023-06-16T02:52:38.555Z,25.93
2023-06-16T02:53:38.555Z,25.93
2023-06-16T02:54:38.546Z,25.92
2023-06-16T02:55:38.559Z,25.93
2023-06-16T02:56:38.540Z,25.92
2023-06-16T02:57:38.525Z,25.93
2023-06-16T02:58:38.518Z,25.93
2023-06-16T02:59:38.509Z,25.92
2023-06-16T03:00:38.550Z,25.92
2023-06-16T03:01:38.527Z,25.92
2023-06-16T03:02:38.569Z,25.92
2023-06-16T03:03:38.597Z,25.92
2023-06-16T03:04:38.550Z,25.92
2023-06-16T03:05:38.593Z,25.92
2023-06-16T03:06:38.595Z,25.92
2023-06-16T03:07:38.619Z,25.91
2023-06-16T03:08:38.621Z,25.92
2023-06-16T03:09:38.629Z,25.92
2023-06-16T03:10:38.651Z,25.90
2023-06-16T03:11:38.732Z,25.92
2023-06-16T03:12:38.682Z,25.92
2023-06-16T03:13:38.707Z,25.92
2023-06-16T03:14:38.741Z,25.91
2023-06-16T03:15:38.734Z,25.91
2023-06-16T03:16:38.878Z,25.91
2023-06-16T03:17:38.775Z,25.91
2023-06-16T03:18:38.795Z,25.91
2023-06-16T03:19:38.812Z,25.90
2023-06-16T03:20:38.841Z,25.91
2023-06-16T03:21:38.867Z,25.91
2023-06-16T03:22:38.871Z,25.91
2023-06-16T03:23:38.916Z,25.91
2023-06-16T03:24:38.967Z,25.91
2023-06-16T03:25:38.951Z,25.91
2023-06-16T03:26:38.953Z,25.91
2023-06-16T03:27:38.976Z,25.91
2023-06-16T03:28:38.993Z,25.91
2023-06-16T03:29:39.023Z,25.91
2023-06-16T03:30:39.055Z,25.91
2023-06-16T03:31:39.107Z,25.91
2023-06-16T03:32:39.217Z,25.91
2023-06-16T03:33:39.087Z,25.91
2023-06-16T03:34:39.118Z,25.90
2023-06-16T03:35:39.153Z,25.91
2023-06-16T03:36:39.159Z,25.90
2023-06-16T03:37:39.159Z,25.90
2023-06-16T03:38:39.166Z,25.91
2023-06-16T03:39:39.226Z,25.90
2023-06-16T03:40:39.218Z,25.90
2023-06-16T03:41:39.268Z,25.91
2023-06-16T03:42:39.245Z,25.90
2023-06-16T03:43:39.279Z,25.91
2023-06-16T03:44:39.322Z,25.91
2023-06-16T03:45:39.382Z,25.91
2023-06-16T03:46:39.324Z,25.90
2023-06-16T03:47:39.392Z,25.90
2023-06-16T03:48:39.352Z,25.90
2023-06-16T03:49:39.410Z,25.90
2023-06-16T03:50:39.435Z,25.90
2023-06-16T03:51:39.431Z,25.90
2023-06-16T03:52:39.425Z,25.90
2023-06-16T03:53:39.452Z,25.90
2023-06-16T03:54:39.464Z,25.90
2023-06-16T03:55:39.510Z,25.90
2023-06-16T03:56:39.496Z,25.90
2023-06-16T03:57:39.523Z,25.90
2023-06-16T03:58:39.542Z,25.89
2023-06-16T03:59:39.538Z,25.89
2023-06-16T04:00:39.580Z,25.90
2023-06-16T04:01:39.656Z,25.90
2023-06-16T04:02:39.669Z,25.90
2023-06-16T04:03:39.666Z,25.90
2023-06-16T04:04:39.636Z,25.90
2023-06-16T04:05:39.653Z,25.90
2023-06-16T04:06:39.653Z,25.90
2023-06-16T04:07:39.668Z,25.91
2023-06-16T04:08:39.710Z,25.91
2023-06-16T04:09:39.706Z,25.91
2023-06-16T04:10:39.725Z,25.91
2023-06-16T04:11:39.729Z,25.91
2023-06-16T04:12:39.766Z,25.92
2023-06-16T04:13:39.773Z,25.92
2023-06-16T04:14:39.808Z,25.92
2023-06-16T04:15:39.806Z,25.92
2023-06-16T04:16:39.836Z,25.92
2023-06-16T04:17:39.871Z,25.91
2023-06-16T04:18:39.853Z,25.92
2023-06-16T04:19:39.878Z,25.92
2023-06-16T04:20:39.903Z,25.92
2023-06-16T04:21:39.903Z,25.92
2023-06-16T04:22:39.924Z,25.93
2023-06-16T04:23:39.968Z,25.93
2023-06-16T04:24:39.964Z,25.93
2023-06-16T04:25:39.992Z,25.93
2023-06-16T04:26:40.021Z,25.94
2023-06-16T04:27:40.036Z,25.93
2023-06-16T04:28:40.050Z,25.94
2023-06-16T04:29:40.069Z,25.94
2023-06-16T04:30:40.243Z,25.94
2023-06-16T04:31:40.105Z,25.95
2023-06-16T04:32:40.155Z,25.94
2023-06-16T04:33:40.124Z,25.94
2023-06-16T04:34:40.176Z,25.94
2023-06-16T04:35:40.178Z,25.93
2023-06-16T04:36:40.221Z,25.93
2023-06-16T04:37:40.197Z,25.94
2023-06-16T04:38:40.220Z,25.93
2023-06-16T04:39:40.228Z,25.94
2023-06-16T04:40:40.247Z,25.95
2023-06-16T04:41:40.274Z,25.94
2023-06-16T04:42:40.323Z,25.95
2023-06-16T04:43:40.325Z,25.95
2023-06-16T04:44:40.322Z,25.95
2023-06-16T04:45:40.356Z,25.95
2023-06-16T04:46:40.340Z,25.95
2023-06-16T04:47:40.383Z,25.97
2023-06-16T04:48:40.379Z,25.96
2023-06-16T04:49:40.393Z,25.96
2023-06-16T04:50:40.418Z,25.96
2023-06-16T04:51:40.426Z,25.97
2023-06-16T04:52:40.423Z,25.97
2023-06-16T04:53:40.444Z,25.97
2023-06-16T04:54:40.458Z,25.97
2023-06-16T04:55:40.473Z,25.98
2023-06-16T04:56:40.492Z,25.98
2023-06-16T04:57:40.537Z,25.97
2023-06-16T04:58:40.521Z,25.98
2023-06-16T04:59:40.539Z,25.97
2023-06-16T05:00:40.568Z,25.97
2023-06-16T05:01:40.560Z,25.98
2023-06-16T05:02:40.618Z,25.97
2023-06-16T05:03:40.683Z,25.97
2023-06-16T05:04:40.638Z,25.97
2023-06-16T05:05:40.635Z,25.98
2023-06-16T05:06:40.663Z,25.97
2023-06-16T05:07:40.690Z,25.98
2023-06-16T05:08:40.687Z,25.97
2023-06-16T05:09:40.745Z,25.97
2023-06-16T05:10:40.759Z,25.96
2023-06-16T05:11:40.761Z,25.96
2023-06-16T05:12:40.759Z,25.96
2023-06-16T05:13:40.811Z,25.96
2023-06-16T05:14:40.792Z,25.96
2023-06-16T05:15:40.805Z,25.95
2023-06-16T05:16:40.877Z,25.96
2023-06-16T05:17:41.105Z,25.96
2023-06-16T05:18:40.892Z,25.95
2023-06-16T05:19:40.857Z,25.95
2023-06-16T05:20:40.878Z,25.96
2023-06-16T05:21:40.886Z,25.95
2023-06-16T05:22:40.904Z,25.94
2023-06-16T05:23:40.967Z,25.95
2023-06-16T05:24:41.033Z,25.94
2023-06-16T05:25:40.951Z,25.94
2023-06-16T05:26:40.948Z,25.93
2023-06-16T05:27:40.950Z,25.94
2023-06-16T05:28:40.972Z,25.94
2023-06-16T05:29:41.005Z,25.94
2023-06-16T05:30:41.023Z,25.94
2023-06-16T05:31:41.021Z,25.94
2023-06-16T05:32:41.074Z,25.94
2023-06-16T05:33:41.024Z,25.94
2023-06-16T05:34:41.052Z,25.95
2023-06-16T05:35:41.035Z,25.95
2023-06-16T05:36:41.087Z,25.96
2023-06-16T05:37:41.142Z,25.97
2023-06-16T05:38:41.105Z,25.98
2023-06-16T05:39:41.111Z,26.00
2023-06-16T05:40:41.144Z,26.02
2023-06-16T05:41:42.854Z,26.05
2023-06-16T05:42:41.220Z,26.07
2023-06-16T05:43:41.179Z,26.09
2023-06-16T05:44:41.206Z,26.12
2023-06-16T05:45:41.188Z,26.13
2023-06-16T05:46:41.210Z,26.16
2023-06-16T05:47:41.266Z,26.18
2023-06-16T05:48:43.065Z,26.20
2023-06-16T05:49:41.215Z,26.23
2023-06-16T05:50:41.303Z,26.22
2023-06-16T05:51:41.195Z,26.23
2023-06-16T05:52:41.165Z,26.25
2023-06-16T05:53:41.162Z,26.27
2023-06-16T05:54:41.157Z,26.27
2023-06-16T05:55:41.161Z,26.27
2023-06-16T05:56:41.136Z,26.26
2023-06-16T05:57:41.206Z,26.26
2023-06-16T05:58:41.124Z,26.26
2023-06-16T05:59:41.123Z,26.25
2023-06-16T06:00:41.114Z,26.26
2023-06-16T06:01:41.117Z,26.25
2023-06-16T06:02:41.207Z,26.24
2023-06-16T06:03:41.307Z,26.24
2023-06-16T06:04:41.123Z,26.24
2023-06-16T06:05:41.106Z,26.22
2023-06-16T06:06:41.071Z,26.22
2023-06-16T06:07:41.068Z,26.23
2023-06-16T06:08:41.068Z,26.22
2023-06-16T06:09:41.054Z,26.22
2023-06-16T06:10:41.049Z,26.22
2023-06-16T06:11:41.053Z,26.21
2023-06-16T06:12:41.043Z,26.22
2023-06-16T06:13:41.058Z,26.22
2023-06-16T06:14:41.025Z,26.22
2023-06-16T06:15:41.094Z,26.21
2023-06-16T06:16:41.003Z,26.20
2023-06-16T06:17:41.063Z,26.20
2023-06-16T06:18:40.986Z,26.19
2023-06-16T06:19:40.987Z,26.19
2023-06-16T06:20:40.989Z,26.19
2023-06-16T06:21:41.006Z,26.19
2023-06-16T06:22:40.966Z,26.18
2023-06-16T06:23:40.966Z,26.19
2023-06-16T06:24:40.945Z,26.18
2023-06-16T06:25:40.953Z,26.18
2023-06-16T06:26:40.938Z,26.18
2023-06-16T06:27:40.935Z,26.17
2023-06-16T06:28:40.925Z,26.18
2023-06-16T06:29:41.097Z,26.18
2023-06-16T06:30:40.944Z,26.18
2023-06-16T06:31:40.979Z,26.17
2023-06-16T06:32:40.941Z,26.18
2023-06-16T06:33:40.898Z,26.19
2023-06-16T06:34:40.885Z,26.19
2023-06-16T06:35:40.932Z,26.20
2023-06-16T06:36:40.866Z,26.19
2023-06-16T06:37:40.883Z,26.20
2023-06-16T06:38:40.858Z,26.21
2023-06-16T06:39:40.853Z,26.21
2023-06-16T06:40:40.882Z,26.21
2023-06-16T06:41:40.844Z,26.23
2023-06-16T06:42:40.843Z,26.23
2023-06-16T06:43:40.823Z,26.26
2023-06-16T06:44:40.826Z,26.28
2023-06-16T06:45:40.823Z,26.33
2023-06-16T06:46:40.921Z,26.38
2023-06-16T06:47:40.843Z,26.40
2023-06-16T06:48:40.821Z,26.41
2023-06-16T06:49:40.785Z,26.40
2023-06-16T06:50:41.311Z,26.38
2023-06-16T06:51:40.803Z,26.40
2023-06-16T06:52:40.793Z,26.37
2023-06-16T06:53:40.766Z,26.35
2023-06-16T06:54:40.770Z,26.36
2023-06-16T06:55:40.808Z,26.38
2023-06-16T06:56:40.749Z,26.39
2023-06-16T06:57:40.731Z,26.40
2023-06-16T06:58:40.765Z,26.41
2023-06-16T06:59:40.719Z,26.44
2023-06-16T07:00:40.757Z,26.46
2023-06-16T07:01:40.769Z,26.48
2023-06-16T07:02:40.877Z,26.51
2023-06-16T07:03:40.767Z,26.52
2023-06-16T07:04:40.713Z,26.54
2023-06-16T07:05:40.688Z,26.55
2023-06-16T07:06:40.681Z,26.58
2023-06-16T07:07:40.666Z,26.61
2023-06-16T07:08:40.674Z,26.63
2023-06-16T07:09:40.668Z,26.65
2023-06-16T07:10:40.677Z,26.67
2023-06-16T07:11:40.657Z,26.69
2023-06-16T07:12:40.638Z,26.71
2023-06-16T07:13:40.676Z,26.73
2023-06-16T07:14:40.629Z,26.75
2023-06-16T07:15:40.660Z,26.77
2023-06-16T07:16:40.649Z,26.78
2023-06-16T07:17:42.729Z,26.80
2023-06-16T07:18:40.611Z,26.81
2023-06-16T07:19:40.599Z,26.82
2023-06-16T07:20:40.613Z,26.83
2023-06-16T07:21:40.679Z,26.83
2023-06-16T07:22:40.736Z,26.83
2023-06-16T07:23:40.799Z,26.81
2023-06-16T07:24:40.932Z,26.81
2023-06-16T07:25:40.911Z,26.83
2023-06-16T07:26:40.939Z,26.82
2023-06-16T07:27:41.013Z,26.82
2023-06-16T07:28:41.059Z,26.85
2023-06-16T07:29:41.133Z,26.87
2023-06-16T07:30:41.202Z,26.88
2023-06-16T07:31:41.264Z,26.89
2023-06-16T07:32:41.322Z,26.90
2023-06-16T07:33:41.364Z,26.93
2023-06-16T07:34:41.548Z,26.94
2023-06-16T07:35:41.503Z,26.93
2023-06-16T07:36:41.555Z,26.90
2023-06-16T07:37:41.851Z,26.83
2023-06-16T07:38:41.682Z,26.80
2023-06-16T07:39:41.717Z,26.78
2023-06-16T07:40:41.758Z,26.79
2023-06-16T07:41:41.789Z,26.79
2023-06-16T07:42:41.876Z,26.80
2023-06-16T07:43:41.910Z,26.81
2023-06-16T07:44:41.969Z,26.84
2023-06-16T07:45:42.047Z,26.84
2023-06-16T07:46:42.094Z,26.84
2023-06-16T07:47:42.200Z,26.87
2023-06-16T07:48:42.213Z,26.89
2023-06-16T07:49:42.262Z,26.91
2023-06-16T07:50:42.340Z,26.93
2023-06-16T07:51:42.370Z,26.94
2023-06-16T07:52:42.434Z,26.96
2023-06-16T07:53:42.494Z,26.98
2023-06-16T07:54:42.524Z,27.00
2023-06-16T07:55:42.584Z,27.01
2023-06-16T07:56:42.617Z,27.01
2023-06-16T07:57:42.667Z,27.02
2023-06-16T07:58:42.779Z,27.03
2023-06-16T07:59:42.770Z,27.04
2023-06-16T08:00:42.846Z,27.05
2023-06-16T08:01:42.866Z,27.06
2023-06-16T08:02:42.979Z,27.04
2023-06-16T08:03:43.050Z,27.05
2023-06-16T08:04:43.018Z,27.05
2023-06-16T08:05:43.020Z,27.05
2023-06-16T08:06:43.061Z,27.05
2023-06-16T08:07:43.115Z,27.05
2023-06-16T08:08:43.179Z,27.03
2023-06-16T08:09:43.197Z,27.05
2023-06-16T08:10:43.259Z,27.04
2023-06-16T08:11:43.284Z,27.04
2023-06-16T08:12:43.352Z,27.03
2023-06-16T08:13:43.380Z,27.03
2023-06-16T08:14:43.420Z,27.03
2023-06-16T08:15:43.517Z,27.03
2023-06-16T08:16:43.547Z,27.03
2023-06-16T08:17:43.590Z,27.03
2023-06-16T08:18:43.628Z,27.03
2023-06-16T08:19:43.645Z,27.03
2023-06-16T08:20:43.707Z,27.02
2023-06-16T08:21:43.754Z,27.00
2023-06-16T08:22:43.828Z,27.03
2023-06-16T08:23:43.874Z,27.02
2023-06-16T08:24:43.902Z,27.04
2023-06-16T08:25:43.948Z,27.03
2023-06-16T08:26:43.999Z,27.02
2023-06-16T08:27:44.048Z,26.99
2023-06-16T08:28:44.118Z,26.99
2023-06-16T08:29:44.191Z,26.97
2023-06-16T08:30:44.369Z,26.96
2023-06-16T08:31:44.241Z,26.93
2023-06-16T08:32:44.354Z,26.90
2023-06-16T08:33:44.358Z,26.89
2023-06-16T08:34:44.444Z,26.87
2023-06-16T08:35:44.845Z,26.85
2023-06-16T08:36:44.548Z,26.83
2023-06-16T08:37:44.847Z,26.81
2023-06-16T08:38:44.673Z,26.79
2023-06-16T08:39:44.719Z,26.78
2023-06-16T08:40:44.776Z,26.76
2023-06-16T08:41:44.891Z,26.76
2023-06-16T08:42:44.904Z,26.75
2023-06-16T08:43:44.963Z,26.77
2023-06-16T08:44:45.026Z,26.79
2023-06-16T08:45:45.069Z,26.80
2023-06-16T08:46:45.154Z,26.84
2023-06-16T08:47:45.363Z,26.86
2023-06-16T08:48:45.307Z,26.88
2023-06-16T08:49:45.339Z,26.91
2023-06-16T08:50:45.376Z,26.93
2023-06-16T08:51:45.454Z,26.96
2023-06-16T08:52:46.219Z,26.99
2023-06-16T08:53:45.534Z,27.03
2023-06-16T08:54:45.578Z,27.05
2023-06-16T08:55:45.642Z,27.09
2023-06-16T08:56:45.708Z,27.12
2023-06-16T08:57:45.745Z,27.14
2023-06-16T08:58:45.754Z,27.17
2023-06-16T08:59:45.778Z,27.20
2023-06-16T09:00:45.812Z,27.23
2023-06-16T09:01:45.855Z,27.26
2023-06-16T09:02:45.984Z,27.29
2023-06-16T09:03:45.961Z,27.30
2023-06-16T09:04:45.944Z,27.32
2023-06-16T09:05:45.980Z,27.34
2023-06-16T09:06:45.982Z,27.36
2023-06-16T09:07:46.018Z,27.37
2023-06-16T09:08:46.041Z,27.40
2023-06-16T09:09:46.062Z,27.42
2023-06-16T09:10:46.074Z,27.43
2023-06-16T09:11:46.086Z,27.43
2023-06-16T09:12:46.115Z,27.43
2023-06-16T09:13:46.134Z,27.45
2023-06-16T09:14:46.146Z,27.47
2023-06-16T09:15:46.165Z,27.47
2023-06-16T09:16:46.315Z,27.39
2023-06-16T09:17:46.214Z,27.32
2023-06-16T09:18:46.281Z,27.27
2023-06-16T09:19:46.253Z,27.20
2023-06-16T09:20:46.311Z,27.13
2023-06-16T09:21:49.813Z,27.08
2023-06-16T09:22:47.373Z,27.04
2023-06-16T09:23:46.360Z,27.01
2023-06-16T09:24:46.335Z,26.90
2023-06-16T09:25:46.313Z,26.79
2023-06-16T09:26:46.350Z,26.65
2023-06-16T09:27:46.310Z,26.52
2023-06-16T09:28:46.316Z,26.45
2023-06-16T09:29:46.293Z,26.44
2023-06-16T09:30:48.988Z,26.46
2023-06-16T09:31:47.288Z,26.47
2023-06-16T09:32:46.321Z,26.52
2023-06-16T09:33:46.439Z,26.57
2023-06-16T09:34:46.257Z,26.62
2023-06-16T09:35:46.270Z,26.67
2023-06-16T09:36:46.273Z,26.71
2023-06-16T09:37:46.242Z,26.74
2023-06-16T09:38:46.258Z,26.71
2023-06-16T09:39:46.225Z,26.70
2023-06-16T09:40:46.219Z,26.76
2023-06-16T09:41:46.211Z,26.79
2023-06-16T09:42:46.206Z,26.83
2023-06-16T09:43:46.227Z,26.83
2023-06-16T09:44:46.254Z,26.86
2023-06-16T09:45:46.314Z,26.81
2023-06-16T09:46:46.347Z,26.73
2023-06-16T09:47:46.434Z,26.64
2023-06-16T09:48:46.385Z,26.59
2023-06-16T09:49:46.382Z,26.50
2023-06-16T09:50:46.389Z,26.44
2023-06-16T09:51:46.430Z,26.30
2023-06-16T09:52:46.451Z,26.16
2023-06-16T09:53:46.497Z,26.02
2023-06-16T09:54:46.544Z,25.90
2023-06-16T09:55:46.569Z,25.77
2023-06-16T09:56:46.579Z,25.73
2023-06-16T09:57:46.601Z,25.67
2023-06-16T09:58:46.580Z,25.64
2023-06-16T09:59:46.581Z,25.61
2023-06-16T10:00:46.595Z,25.47
2023-06-16T10:01:46.630Z,25.43
2023-06-16T10:02:46.763Z,25.36
2023-06-16T10:03:46.678Z,25.38
2023-06-16T10:04:46.686Z,25.41
2023-06-16T10:05:46.653Z,25.35
2023-06-16T10:06:46.679Z,25.35
2023-06-16T10:07:46.702Z,25.37
2023-06-16T10:08:46.684Z,25.40
2023-06-16T10:10:02.187Z,25.39
2023-06-16T10:10:47.709Z,25.38
2023-06-16T10:11:46.660Z,25.34
2023-06-16T10:12:46.746Z,25.37
2023-06-16T10:13:46.653Z,25.33
2023-06-16T10:14:46.659Z,25.34
2023-06-16T10:15:46.644Z,25.33
2023-06-16T10:16:46.671Z,25.32
2023-06-16T10:17:46.723Z,25.34
2023-06-16T10:18:46.720Z,25.37
2023-06-16T10:19:46.609Z,25.40
2023-06-16T10:20:46.600Z,25.39
2023-06-16T10:21:46.610Z,25.32
2023-06-16T10:22:46.615Z,25.25
2023-06-16T10:23:46.654Z,25.24
2023-06-16T10:24:46.583Z,25.24
2023-06-16T10:25:46.564Z,25.27
2023-06-16T10:26:46.550Z,25.28
2023-06-16T10:27:46.545Z,25.30
2023-06-16T10:28:46.553Z,25.31
2023-06-16T10:29:46.576Z,25.34
2023-06-16T10:30:46.568Z,25.43
2023-06-16T10:31:46.532Z,25.51
2023-06-16T10:32:46.651Z,25.60
2023-06-16T10:33:46.630Z,25.65
2023-06-16T10:34:46.696Z,25.69
2023-06-16T10:35:46.763Z,25.72
2023-06-16T10:36:46.823Z,25.75
2023-06-16T10:37:46.956Z,25.79
2023-06-16T10:38:46.974Z,25.81
2023-06-16T10:39:47.011Z,25.83
2023-06-16T10:40:47.044Z,25.83
2023-06-16T10:41:47.090Z,25.77
2023-06-16T10:42:47.156Z,25.67
2023-06-16T10:43:47.177Z,25.75
2023-06-16T10:44:47.293Z,25.77
2023-06-16T10:45:47.449Z,25.78
2023-06-16T10:46:47.403Z,25.79
2023-06-16T10:47:47.498Z,25.78
2023-06-16T10:48:47.495Z,25.77
2023-06-16T10:49:47.587Z,25.74
2023-06-16T10:50:47.627Z,25.76
2023-06-16T10:51:47.641Z,25.77
2023-06-16T10:52:47.708Z,25.79
2023-06-16T10:53:47.790Z,25.81
2023-06-16T10:54:47.889Z,25.84
2023-06-16T10:55:47.908Z,25.85
2023-06-16T10:56:53.646Z,25.88
2023-06-16T10:57:48.986Z,25.93
2023-06-16T10:58:49.567Z,25.97
2023-06-16T10:59:47.921Z,26.01
2023-06-16T11:00:47.928Z,26.01
2023-06-16T11:01:47.978Z,26.08
2023-06-16T11:02:47.988Z,26.10
2023-06-16T11:03:48.215Z,26.17
2023-06-16T11:04:47.892Z,26.22
2023-06-16T11:05:47.884Z,26.27
2023-06-16T11:06:58.627Z,26.32
2023-06-16T11:07:48.887Z,26.33
2023-06-16T11:08:47.868Z,26.37
2023-06-16T11:09:47.863Z,26.39
2023-06-16T11:10:47.876Z,26.42
2023-06-16T11:11:47.853Z,26.45
2023-06-16T11:12:47.857Z,26.49
2023-06-16T11:13:47.857Z,26.50
2023-06-16T11:14:47.814Z,26.49
2023-06-16T11:15:47.860Z,26.51
2023-06-16T11:16:47.856Z,26.52
2023-06-16T11:17:47.862Z,26.53
2023-06-16T11:18:47.802Z,26.55
2023-06-16T11:19:47.828Z,26.59
2023-06-16T11:20:47.785Z,26.62
2023-06-16T11:21:47.807Z,26.65
2023-06-16T11:22:47.767Z,26.67
2023-06-16T11:23:47.783Z,26.70
2023-06-16T11:24:47.753Z,26.72
2023-06-16T11:25:47.762Z,26.73
2023-06-16T11:26:47.793Z,26.73
2023-06-16T11:27:47.736Z,26.74
2023-06-16T11:28:47.771Z,26.74
2023-06-16T11:29:47.801Z,26.73
2023-06-16T11:30:47.858Z,26.74
2023-06-16T11:32:48.021Z,26.73
2023-06-16T11:33:48.048Z,26.73
2023-06-16T11:34:48.085Z,26.73
2023-06-16T11:35:48.131Z,26.73
2023-06-16T11:36:49.472Z,26.71
2023-06-16T11:37:48.193Z,26.71
2023-06-16T11:38:48.194Z,26.70
2023-06-16T11:39:48.169Z,26.70
2023-06-16T11:40:51.065Z,26.70
2023-06-16T11:42:48.340Z,26.69
2023-06-16T11:43:48.421Z,26.70
2023-06-16T11:44:48.477Z,26.72
2023-06-16T11:45:48.548Z,26.73
2023-06-16T11:46:48.674Z,26.73
2023-06-16T11:47:48.655Z,26.75
2023-06-16T11:48:48.707Z,26.75
2023-06-16T11:49:48.773Z,26.76
2023-06-16T11:50:48.846Z,26.78
2023-06-16T11:51:48.906Z,26.78
2023-06-16T11:52:48.983Z,26.80
2023-06-16T11:53:49.028Z,26.79
2023-06-16T11:54:49.096Z,26.79
2023-06-16T11:55:49.143Z,26.81
2023-06-16T11:56:49.211Z,26.83
2023-06-16T11:57:49.262Z,26.84
2023-06-16T11:58:49.327Z,26.85
2023-06-16T11:59:49.377Z,26.85
2023-06-16T12:00:49.491Z,26.86
2023-06-16T12:01:49.517Z,26.87
2023-06-16T12:02:49.594Z,26.87
2023-06-16T12:04:49.628Z,26.87
2023-06-16T12:05:49.626Z,26.86
2023-06-16T12:06:49.686Z,26.87
2023-06-16T12:07:49.610Z,26.87
2023-06-16T12:08:49.609Z,26.86
2023-06-16T12:09:49.580Z,26.84
2023-06-16T12:10:49.585Z,26.85
2023-06-16T12:11:49.584Z,26.84
2023-06-16T12:12:49.570Z,26.84
2023-06-16T12:13:49.562Z,26.84
2023-06-16T12:14:49.550Z,26.82
2023-06-16T12:15:49.556Z,26.81
2023-06-16T12:16:49.568Z,26.79
2023-06-16T12:17:49.560Z,26.79
2023-06-16T12:18:49.534Z,26.77
2023-06-16T12:19:49.548Z,26.77
2023-06-16T12:20:49.530Z,26.76
2023-06-16T12:21:49.527Z,26.74
2023-06-16T12:22:49.521Z,26.74
2023-06-16T12:23:49.554Z,26.73
2023-06-16T12:24:49.514Z,26.74
2023-06-16T12:25:49.500Z,26.73
2023-06-16T12:26:49.577Z,26.73
2023-06-16T12:27:49.477Z,26.74
2023-06-16T12:28:49.499Z,26.75
2023-06-16T12:29:49.481Z,26.75
2023-06-16T12:30:49.493Z,26.77
2023-06-16T12:31:49.471Z,26.78
2023-06-16T12:32:49.513Z,26.80
2023-06-16T12:33:49.444Z,26.80
2023-06-16T12:34:49.470Z,26.79
2023-06-16T12:35:49.421Z,26.79
2023-06-16T12:36:49.429Z,26.80
2023-06-16T12:37:49.411Z,26.82
2023-06-16T12:38:49.423Z,26.81
2023-06-16T12:39:49.407Z,26.81
2023-06-16T12:40:49.419Z,26.82
2023-06-16T12:41:49.475Z,26.83
2023-06-16T12:42:49.523Z,26.84
2023-06-16T12:43:49.606Z,26.86
2023-06-16T12:44:49.647Z,26.88
2023-06-16T12:45:49.791Z,26.89
2023-06-16T12:46:49.786Z,26.91
2023-06-16T12:47:49.871Z,26.93
2023-06-16T12:48:49.837Z,26.93
2023-06-16T12:49:49.906Z,26.94
2023-06-16T12:50:49.964Z,26.95
2023-06-16T12:51:50.033Z,26.95
2023-06-16T12:52:50.045Z,26.97
2023-06-16T12:53:50.127Z,26.97
2023-06-16T12:54:50.150Z,26.97
2023-06-16T12:55:50.207Z,26.97